createdAt,value
2017-11-14T00:00:18.690Z,3.8
2017-11-14T00:01:19.005Z,3.82
2017-11-14T00:02:19.321Z,3.75
2017-11-14T00:03:18.966Z,3.82
2017-11-14T00:04:19.294Z,3.86
2017-11-14T00:05:18.588Z,3.78
2017-11-14T00:06:18.901Z,3.75
2017-11-14T00:07:18.884Z,3.8
2017-11-14T00:08:18.856Z,3.82
2017-11-14T00:09:18.846Z,3.82
2017-11-14T00:10:18.815Z,3.76
2017-11-14T00:11:18.792Z,3.79
2017-11-14T00:12:18.782Z,3.75
2017-11-14T00:13:18.753Z,3.65
2017-11-14T00:14:18.736Z,3.65
2017-11-14T00:15:18.707Z,3.64
2017-11-14T00:16:18.354Z,3.61
2017-11-14T00:17:19.006Z,3.53
2017-11-14T00:18:18.641Z,3.57
2017-11-14T00:19:18.624Z,3.58
2017-11-14T00:20:18.261Z,3.58
2017-11-14T00:21:18.584Z,3.6
2017-11-14T00:22:18.557Z,3.6
2017-11-14T00:23:18.878Z,3.5
2017-11-14T00:24:18.181Z,3.5
2017-11-14T00:25:18.528Z,3.52
2017-11-14T00:26:18.477Z,3.49
2017-11-14T00:27:18.796Z,3.43
2017-11-14T00:28:18.780Z,3.43
2017-11-14T00:29:18.752Z,3.31
2017-11-14T00:30:20.091Z,3.39
2017-11-14T00:31:18.701Z,3.42
2017-11-14T00:32:18.672Z,3.34
2017-11-14T00:33:18.037Z,3.42
2017-11-14T00:34:18.631Z,3.39
2017-11-14T00:35:18.626Z,3.34
2017-11-14T00:36:18.596Z,3.31
2017-11-14T00:37:18.233Z,3.34
2017-11-14T00:38:18.268Z,3.42
2017-11-14T00:39:18.190Z,3.31
2017-11-14T00:40:18.168Z,3.31
2017-11-14T00:41:17.813Z,3.31
2017-11-14T00:42:17.789Z,3.39
2017-11-14T00:43:18.177Z,3.33
2017-11-14T00:44:18.088Z,3.39
2017-11-14T00:45:18.401Z,3.4
2017-11-14T00:46:18.379Z,3.42
2017-11-14T00:47:18.016Z,3.42
2017-11-14T00:48:17.765Z,3.42
2017-11-14T00:49:18.306Z,3.4
2017-11-14T00:50:18.288Z,3.36
2017-11-14T00:51:18.279Z,3.31
2017-11-14T00:52:17.905Z,3.42
2017-11-14T00:53:17.892Z,3.34
2017-11-14T00:54:18.209Z,3.36
2017-11-14T00:55:17.845Z,3.3
2017-11-14T00:56:17.821Z,3.4
2017-11-14T00:57:18.139Z,3.39
2017-11-14T00:58:17.784Z,3.39
2017-11-14T00:59:18.098Z,3.36
2017-11-14T01:00:17.401Z,3.43
2017-11-14T01:01:18.044Z,3.33
2017-11-14T01:02:17.692Z,3.39
2017-11-14T01:03:17.677Z,3.36
2017-11-14T01:04:18.002Z,3.33
2017-11-14T01:05:18.008Z,3.36
2017-11-14T01:06:17.945Z,3.43
2017-11-14T01:07:17.248Z,3.43
2017-11-14T01:08:17.896Z,3.53
2017-11-14T01:09:17.544Z,3.49
2017-11-14T01:10:17.855Z,3.49
2017-11-14T01:11:17.500Z,3.53
2017-11-14T01:12:17.481Z,3.58
2017-11-14T01:13:17.458Z,3.5
2017-11-14T01:14:17.782Z,3.62
2017-11-14T01:15:17.413Z,3.65
2017-11-14T01:16:17.391Z,3.6
2017-11-14T01:17:17.037Z,3.61
2017-11-14T01:18:17.010Z,3.54
2017-11-14T01:19:17.708Z,3.62
2017-11-14T01:20:16.967Z,3.68
2017-11-14T01:21:17.285Z,3.71
2017-11-14T01:22:17.268Z,3.65
2017-11-14T01:23:17.577Z,3.71
2017-11-14T01:24:17.215Z,3.76
2017-11-14T01:25:17.197Z,3.68
2017-11-14T01:26:17.508Z,3.7
2017-11-14T01:27:16.814Z,3.68
2017-11-14T01:28:17.485Z,3.71
2017-11-14T01:29:17.459Z,3.7
2017-11-14T01:30:17.097Z,3.71
2017-11-14T01:31:17.398Z,3.76
2017-11-14T01:32:17.392Z,3.7
2017-11-14T01:33:17.021Z,3.78
2017-11-14T01:34:16.717Z,3.75
2017-11-14T01:35:16.646Z,3.7
2017-11-14T01:36:16.966Z,3.72
2017-11-14T01:37:17.280Z,3.7
2017-11-14T01:38:17.269Z,3.79
2017-11-14T01:39:17.231Z,3.86
2017-11-14T01:40:16.541Z,3.83
2017-11-14T01:41:17.198Z,3.85
2017-11-14T01:42:17.174Z,3.86
2017-11-14T01:43:16.810Z,3.88
2017-11-14T01:44:16.454Z,3.9
2017-11-14T01:45:16.770Z,3.85
2017-11-14T01:46:16.749Z,3.89
2017-11-14T01:47:17.063Z,3.92
2017-11-14T01:48:16.708Z,3.94
2017-11-14T01:49:17.018Z,3.88
2017-11-14T01:50:16.669Z,3.89
2017-11-14T01:51:16.644Z,3.92
2017-11-14T01:52:16.961Z,3.85
2017-11-14T01:53:16.597Z,3.92
2017-11-14T01:54:16.780Z,3.89
2017-11-14T01:55:16.223Z,3.76
2017-11-14T01:56:16.539Z,3.89
2017-11-14T01:57:16.852Z,3.86
2017-11-14T01:58:16.857Z,3.83
2017-11-14T01:59:16.859Z,3.79
2017-11-14T02:00:16.447Z,3.89
2017-11-14T02:01:16.431Z,3.89
2017-11-14T02:02:16.745Z,3.86
2017-11-14T02:03:16.385Z,3.79
2017-11-14T02:04:16.367Z,3.79
2017-11-14T02:05:16.005Z,3.78
2017-11-14T02:06:16.670Z,3.75
2017-11-14T02:07:16.300Z,3.72
2017-11-14T02:08:16.610Z,3.72
2017-11-14T02:09:16.316Z,3.78
2017-11-14T02:10:15.907Z,3.7
2017-11-14T02:11:16.214Z,3.68
2017-11-14T02:12:16.188Z,3.62
2017-11-14T02:13:16.513Z,3.72
2017-11-14T02:14:16.160Z,3.65
2017-11-14T02:15:16.131Z,3.57
2017-11-14T02:16:16.456Z,3.6
2017-11-14T02:17:16.088Z,3.53
2017-11-14T02:18:16.416Z,3.61
2017-11-14T02:19:16.042Z,3.57
2017-11-14T02:20:16.027Z,3.61
2017-11-14T02:21:16.013Z,3.6
2017-11-14T02:22:15.980Z,3.58
2017-11-14T02:23:15.971Z,3.49
2017-11-14T02:24:15.601Z,3.49
2017-11-14T02:25:16.268Z,3.52
2017-11-14T02:26:15.889Z,3.47
2017-11-14T02:27:15.869Z,3.54
2017-11-14T02:28:16.194Z,3.43
2017-11-14T02:29:15.824Z,3.47
2017-11-14T02:30:15.813Z,3.5
2017-11-14T02:31:16.124Z,3.46
2017-11-14T02:32:15.773Z,3.4
2017-11-14T02:33:16.082Z,3.43
2017-11-14T02:34:15.381Z,3.47
2017-11-14T02:35:16.111Z,3.39
2017-11-14T02:36:16.029Z,3.4
2017-11-14T02:37:15.653Z,3.25
2017-11-14T02:38:15.635Z,3.23
2017-11-14T02:39:15.952Z,3.28
2017-11-14T02:40:15.608Z,3.23
2017-11-14T02:41:15.567Z,3.27
2017-11-14T02:42:15.210Z,3.27
2017-11-14T02:43:15.187Z,3.28
2017-11-14T02:44:15.837Z,3.25
2017-11-14T02:45:15.823Z,3.39
2017-11-14T02:46:15.484Z,3.25
2017-11-14T02:47:15.440Z,3.3
2017-11-14T02:48:15.088Z,3.34
2017-11-14T02:49:15.394Z,3.25
2017-11-14T02:50:15.098Z,3.25
2017-11-14T02:51:15.012Z,3.27
2017-11-14T02:52:15.001Z,3.27
2017-11-14T02:53:15.306Z,3.27
2017-11-14T02:54:15.286Z,3.23
2017-11-14T02:55:15.702Z,3.34
2017-11-14T02:56:15.599Z,3.39
2017-11-14T02:57:15.560Z,3.36
2017-11-14T02:58:15.207Z,3.42
2017-11-14T02:59:15.188Z,3.39
2017-11-14T03:00:15.210Z,3.43
2017-11-14T03:01:15.138Z,3.42
2017-11-14T03:02:15.172Z,3.34
2017-11-14T03:03:15.429Z,3.36
2017-11-14T03:04:15.076Z,3.4
2017-11-14T03:05:15.057Z,3.42
2017-11-14T03:06:15.028Z,3.39
2017-11-14T03:07:15.353Z,3.42
2017-11-14T03:08:15.322Z,3.5
2017-11-14T03:09:15.301Z,3.4
2017-11-14T03:10:15.278Z,3.52
2017-11-14T03:11:14.944Z,3.49
2017-11-14T03:12:15.233Z,3.53
2017-11-14T03:13:14.881Z,3.58
2017-11-14T03:14:14.853Z,3.61
2017-11-14T03:15:14.835Z,3.53
2017-11-14T03:16:15.151Z,3.65
2017-11-14T03:17:14.796Z,3.71
2017-11-14T03:18:14.776Z,3.65
2017-11-14T03:19:14.759Z,3.68
2017-11-14T03:20:15.063Z,3.75
2017-11-14T03:21:14.718Z,3.71
2017-11-14T03:22:15.031Z,3.76
2017-11-14T03:23:15.000Z,3.76
2017-11-14T03:24:14.640Z,3.82
2017-11-14T03:25:14.619Z,3.86
2017-11-14T03:26:14.941Z,3.83
2017-11-14T03:27:14.917Z,3.85
2017-11-14T03:28:14.557Z,3.85
2017-11-14T03:29:14.200Z,3.9
2017-11-14T03:30:14.515Z,3.9
2017-11-14T03:31:14.885Z,3.94
2017-11-14T03:32:14.488Z,3.86
2017-11-14T03:33:14.444Z,3.89
2017-11-14T03:34:14.430Z,3.89
2017-11-14T03:35:14.400Z,3.88
2017-11-14T03:36:14.385Z,3.9
2017-11-14T03:37:14.691Z,3.94
2017-11-14T03:38:14.006Z,3.98
2017-11-14T03:39:13.990Z,4.01
2017-11-14T03:40:14.295Z,4
2017-11-14T03:41:14.606Z,4
2017-11-14T03:42:13.913Z,4
2017-11-14T03:43:14.579Z,4.04
2017-11-14T03:44:14.212Z,4.07
2017-11-14T03:45:13.863Z,4.12
2017-11-14T03:46:14.161Z,4.07
2017-11-14T03:47:14.488Z,4.07
2017-11-14T03:48:14.458Z,4.07
2017-11-14T03:49:14.108Z,4.07
2017-11-14T03:50:14.430Z,4.08
2017-11-14T03:51:14.441Z,4.06
2017-11-14T03:52:14.074Z,4.01
2017-11-14T03:53:14.027Z,4.15
2017-11-14T03:54:14.347Z,4.15
2017-11-14T03:55:14.318Z,4.06
2017-11-14T03:56:13.950Z,4.04
2017-11-14T03:57:13.940Z,4.06
2017-11-14T03:58:13.905Z,4.04
2017-11-14T03:59:14.223Z,4.12
2017-11-14T04:00:13.855Z,4.06
2017-11-14T04:01:13.843Z,4.1
2017-11-14T04:02:13.819Z,4.07
2017-11-14T04:03:14.133Z,4.15
2017-11-14T04:04:14.124Z,4.04
2017-11-14T04:05:13.420Z,4.08
2017-11-14T04:06:13.728Z,4.01
2017-11-14T04:07:13.713Z,4.08
2017-11-14T04:08:13.557Z,4.12
2017-11-14T04:09:13.665Z,4.14
2017-11-14T04:10:14.005Z,4.08
2017-11-14T04:11:13.290Z,4.1
2017-11-14T04:12:13.610Z,4.1
2017-11-14T04:13:13.920Z,4.06
2017-11-14T04:14:13.903Z,4.12
2017-11-14T04:15:13.871Z,4.07
2017-11-14T04:16:13.863Z,4.08
2017-11-14T04:17:13.500Z,4.12
2017-11-14T04:18:13.804Z,4.08
2017-11-14T04:19:13.117Z,4.1
2017-11-14T04:20:13.771Z,4.15
2017-11-14T04:21:13.075Z,4.14
2017-11-14T04:22:13.060Z,4.04
2017-11-14T04:23:13.364Z,4.04
2017-11-14T04:24:13.008Z,4.04
2017-11-14T04:25:13.678Z,4.14
2017-11-14T04:26:13.312Z,4.12
2017-11-14T04:27:12.992Z,4.08
2017-11-14T04:28:13.600Z,3.98
2017-11-14T04:29:13.249Z,4.1
2017-11-14T04:30:13.552Z,4.01
2017-11-14T04:31:13.528Z,3.98
2017-11-14T04:32:13.191Z,3.98
2017-11-14T04:33:12.817Z,4.04
2017-11-14T04:34:13.131Z,4
2017-11-14T04:35:13.450Z,4
2017-11-14T04:36:12.752Z,4
2017-11-14T04:37:13.454Z,3.97
2017-11-14T04:38:13.378Z,3.89
2017-11-14T04:39:13.020Z,3.89
2017-11-14T04:40:13.337Z,3.94
2017-11-14T04:41:12.978Z,3.88
2017-11-14T04:42:12.955Z,3.88
2017-11-14T04:43:12.934Z,3.9
2017-11-14T04:44:12.920Z,3.96
2017-11-14T04:45:12.891Z,3.85
2017-11-14T04:46:12.549Z,3.9
2017-11-14T04:47:13.190Z,3.82
2017-11-14T04:48:12.496Z,3.82
2017-11-14T04:49:12.466Z,3.86
2017-11-14T04:50:12.784Z,3.85
2017-11-14T04:51:12.764Z,3.85
2017-11-14T04:52:12.747Z,3.83
2017-11-14T04:53:12.720Z,3.75
2017-11-14T04:54:12.363Z,3.79
2017-11-14T04:55:13.014Z,3.78
2017-11-14T04:56:12.654Z,3.71
2017-11-14T04:57:12.629Z,3.67
2017-11-14T04:58:13.008Z,3.64
2017-11-14T04:59:12.944Z,3.64
2017-11-14T05:00:12.568Z,3.67
2017-11-14T05:01:12.549Z,3.62
2017-11-14T05:02:12.858Z,3.67
2017-11-14T05:03:12.495Z,3.76
2017-11-14T05:04:12.143Z,3.64
2017-11-14T05:05:12.454Z,3.67
2017-11-14T05:06:12.434Z,3.6
2017-11-14T05:07:12.084Z,3.6
2017-11-14T05:08:12.447Z,3.62
2017-11-14T05:09:12.370Z,3.57
2017-11-14T05:10:12.010Z,3.58
2017-11-14T05:11:12.333Z,3.61
2017-11-14T05:12:12.303Z,3.6
2017-11-14T05:13:12.284Z,3.54
2017-11-14T05:14:12.261Z,3.53
2017-11-14T05:15:12.241Z,3.6
2017-11-14T05:16:12.221Z,3.61
2017-11-14T05:17:12.525Z,3.52
2017-11-14T05:18:12.233Z,3.58
2017-11-14T05:19:12.148Z,3.54
2017-11-14T05:20:12.132Z,3.5
2017-11-14T05:21:12.451Z,3.57
2017-11-14T05:22:12.087Z,3.53
2017-11-14T05:23:12.405Z,3.58
2017-11-14T05:24:12.377Z,3.65
2017-11-14T05:25:12.025Z,3.62
2017-11-14T05:26:11.998Z,3.65
2017-11-14T05:27:11.983Z,3.67
2017-11-14T05:28:11.618Z,3.65
2017-11-14T05:29:11.936Z,3.65
2017-11-14T05:30:11.931Z,3.64
2017-11-14T05:31:11.893Z,3.76
2017-11-14T05:32:11.870Z,3.64
2017-11-14T05:33:12.183Z,3.6
2017-11-14T05:34:11.489Z,3.64
2017-11-14T05:35:11.807Z,3.67
2017-11-14T05:36:11.444Z,3.68
2017-11-14T05:37:11.759Z,3.64
2017-11-14T05:38:11.745Z,3.68
2017-11-14T05:39:11.379Z,3.67
2017-11-14T05:40:11.355Z,3.71
2017-11-14T05:41:11.342Z,3.75
2017-11-14T05:42:11.650Z,3.72
2017-11-14T05:43:11.296Z,3.78
2017-11-14T05:44:11.613Z,3.72
2017-11-14T05:45:11.925Z,3.85
2017-11-14T05:46:11.560Z,3.83
2017-11-14T05:47:11.541Z,3.82
2017-11-14T05:48:11.528Z,3.83
2017-11-14T05:49:11.835Z,3.85
2017-11-14T05:50:11.483Z,3.82
2017-11-14T05:51:11.787Z,3.82
2017-11-14T05:52:11.431Z,3.76
2017-11-14T05:53:11.417Z,3.76
2017-11-14T05:54:11.385Z,3.76
2017-11-14T05:55:11.370Z,3.7
2017-11-14T05:56:11.343Z,3.72
2017-11-14T05:57:11.322Z,3.72
2017-11-14T05:58:11.296Z,3.76
2017-11-14T05:59:11.333Z,3.78
2017-11-14T06:00:10.923Z,3.75
2017-11-14T06:01:11.580Z,3.68
2017-11-14T06:02:11.213Z,3.71
2017-11-14T06:03:11.526Z,3.68
2017-11-14T06:04:11.164Z,3.78
2017-11-14T06:05:10.811Z,3.75
2017-11-14T06:06:11.125Z,3.67
2017-11-14T06:07:11.112Z,3.67
2017-11-14T06:08:11.090Z,3.75
2017-11-14T06:09:11.059Z,3.72
2017-11-14T06:10:11.377Z,3.76
2017-11-14T06:11:11.355Z,3.67
2017-11-14T06:12:10.998Z,3.72
2017-11-14T06:13:11.311Z,3.71
2017-11-14T06:14:10.617Z,3.65
2017-11-14T06:15:11.265Z,3.65
2017-11-14T06:16:10.903Z,3.67
2017-11-14T06:17:10.886Z,3.67
2017-11-14T06:18:10.866Z,3.71
2017-11-14T06:19:10.553Z,3.75
2017-11-14T06:20:10.484Z,3.64
2017-11-14T06:21:10.460Z,3.72
2017-11-14T06:22:11.110Z,3.75
2017-11-14T06:23:11.085Z,3.71
2017-11-14T06:24:10.390Z,3.76
2017-11-14T06:25:10.373Z,3.68
2017-11-14T06:26:10.353Z,3.7
2017-11-14T06:27:10.669Z,3.76
2017-11-14T06:28:10.990Z,3.72
2017-11-14T06:29:10.964Z,3.9
2017-11-14T06:30:10.266Z,3.89
2017-11-14T06:31:10.583Z,3.9
2017-11-14T06:32:10.906Z,3.97
2017-11-14T06:33:10.538Z,4
2017-11-14T06:34:10.861Z,4
2017-11-14T06:35:10.489Z,4.01
2017-11-14T06:36:10.478Z,3.98
2017-11-14T06:37:10.790Z,4.07
2017-11-14T06:38:10.438Z,4.08
2017-11-14T06:39:10.081Z,4.04
2017-11-14T06:40:10.043Z,4.06
2017-11-14T06:41:10.699Z,4.12
2017-11-14T06:42:10.340Z,4.1
2017-11-14T06:43:10.315Z,4.04
2017-11-14T06:44:09.960Z,4.18
2017-11-14T06:45:10.610Z,4.21
2017-11-14T06:46:09.918Z,4.24
2017-11-14T06:47:10.573Z,4.21
2017-11-14T06:48:10.212Z,4.21
2017-11-14T06:49:09.851Z,4.24
2017-11-14T06:50:09.831Z,4.32
2017-11-14T06:51:10.474Z,4.24
2017-11-14T06:52:10.125Z,4.33
2017-11-14T06:53:10.431Z,4.4
2017-11-14T06:54:10.410Z,4.32
2017-11-14T06:55:10.064Z,4.34
2017-11-14T06:56:09.702Z,4.39
2017-11-14T06:57:10.015Z,4.39
2017-11-14T06:58:09.997Z,4.42
2017-11-14T06:59:09.970Z,4.43
2017-11-14T07:00:10.290Z,4.46
2017-11-14T07:01:09.933Z,4.46
2017-11-14T07:02:09.908Z,4.57
2017-11-14T07:03:09.550Z,4.59
2017-11-14T07:04:09.540Z,4.58
2017-11-14T07:05:09.845Z,4.59
2017-11-14T07:06:09.825Z,4.64
2017-11-14T07:07:09.464Z,4.64
2017-11-14T07:08:10.108Z,4.64
2017-11-14T07:09:09.758Z,4.61
2017-11-14T07:10:10.069Z,4.75
2017-11-14T07:11:09.713Z,4.75
2017-11-14T07:12:09.353Z,4.72
2017-11-14T07:13:10.007Z,4.76
2017-11-14T07:14:09.985Z,4.75
2017-11-14T07:15:09.629Z,4.72
2017-11-14T07:16:09.608Z,4.79
2017-11-14T07:17:09.251Z,4.79
2017-11-14T07:18:09.568Z,4.75
2017-11-14T07:19:09.884Z,4.86
2017-11-14T07:20:09.535Z,4.91
2017-11-14T07:21:09.512Z,4.79
2017-11-14T07:22:09.486Z,4.94
2017-11-14T07:23:09.794Z,4.84
2017-11-14T07:24:09.772Z,4.8
2017-11-14T07:25:09.416Z,4.83
2017-11-14T07:26:09.397Z,4.88
2017-11-14T07:27:09.376Z,4.91
2017-11-14T07:28:09.701Z,4.96
2017-11-14T07:29:09.335Z,4.92
2017-11-14T07:30:09.728Z,4.92
2017-11-14T07:31:09.626Z,4.95
2017-11-14T07:32:09.605Z,4.99
2017-11-14T07:33:08.910Z,4.94
2017-11-14T07:34:09.582Z,4.95
2017-11-14T07:35:09.551Z,4.94
2017-11-14T07:36:09.184Z,5.01
2017-11-14T07:37:09.527Z,5.04
2017-11-14T07:38:09.484Z,5.12
2017-11-14T07:39:09.460Z,5.05
2017-11-14T07:40:09.450Z,5.05
2017-11-14T07:41:08.742Z,5.13
2017-11-14T07:42:09.070Z,5.16
2017-11-14T07:43:09.369Z,5.2
2017-11-14T07:44:09.362Z,5.22
2017-11-14T07:45:08.994Z,5.27
2017-11-14T07:46:08.979Z,5.3
2017-11-14T07:47:09.286Z,5.34
2017-11-14T07:48:09.281Z,5.48
2017-11-14T07:49:08.919Z,5.5
2017-11-14T07:50:08.897Z,5.41
2017-11-14T07:51:08.536Z,5.56
2017-11-14T07:52:08.856Z,5.56
2017-11-14T07:53:08.833Z,5.59
2017-11-14T07:54:08.823Z,5.55
2017-11-14T07:55:08.997Z,5.59
2017-11-14T07:56:08.439Z,5.64
2017-11-14T07:57:09.082Z,5.67
2017-11-14T07:58:08.741Z,5.64
2017-11-14T07:59:08.724Z,5.67
2017-11-14T08:00:09.032Z,5.57
2017-11-14T08:01:09.009Z,5.67
2017-11-14T08:02:08.647Z,5.7
2017-11-14T08:03:08.294Z,5.74
2017-11-14T08:04:08.618Z,5.77
2017-11-14T08:05:08.257Z,5.73
2017-11-14T08:06:08.569Z,5.77
2017-11-14T08:07:08.549Z,5.83
2017-11-14T08:08:08.539Z,5.83
2017-11-14T08:09:08.849Z,5.83
2017-11-14T08:10:08.826Z,5.86
2017-11-14T08:11:08.523Z,5.85
2017-11-14T08:12:08.109Z,5.89
2017-11-14T08:13:08.095Z,5.91
2017-11-14T08:14:08.751Z,5.91
2017-11-14T08:15:08.053Z,5.91
2017-11-14T08:16:08.419Z,5.95
2017-11-14T08:17:08.353Z,5.98
2017-11-14T08:18:07.993Z,5.91
2017-11-14T08:19:08.309Z,5.95
2017-11-14T08:20:07.953Z,6
2017-11-14T08:21:08.611Z,5.95
2017-11-14T08:22:08.247Z,6.01
2017-11-14T08:23:08.232Z,6.09
2017-11-14T08:24:08.216Z,6.06
2017-11-14T08:25:08.530Z,6.07
2017-11-14T08:26:07.882Z,6.1
2017-11-14T08:27:07.813Z,6.11
2017-11-14T08:28:08.132Z,6.1
2017-11-14T08:29:07.772Z,6.11
2017-11-14T08:30:07.761Z,6.14
2017-11-14T08:31:07.733Z,6.21
2017-11-14T08:32:07.710Z,6.22
2017-11-14T08:33:07.707Z,6.22
2017-11-14T08:34:08.354Z,6.28
2017-11-14T08:35:07.664Z,6.29
2017-11-14T08:36:07.691Z,6.32
2017-11-14T08:37:07.952Z,6.32
2017-11-14T08:38:07.593Z,6.4
2017-11-14T08:39:07.909Z,6.4
2017-11-14T08:40:07.888Z,6.33
2017-11-14T08:41:07.539Z,6.4
2017-11-14T08:42:07.861Z,6.48
2017-11-14T08:43:07.854Z,6.46
2017-11-14T08:44:07.818Z,6.44
2017-11-14T08:45:07.798Z,6.46
2017-11-14T08:46:07.828Z,6.54
2017-11-14T08:47:08.092Z,6.53
2017-11-14T08:48:07.396Z,6.5
2017-11-14T08:49:07.374Z,6.53
2017-11-14T08:50:08.027Z,6.59
2017-11-14T08:51:07.672Z,6.66
2017-11-14T08:52:07.660Z,6.62
2017-11-14T08:53:07.972Z,6.63
2017-11-14T08:54:07.611Z,6.65
2017-11-14T08:55:07.953Z,6.59
2017-11-14T08:56:07.627Z,6.69
2017-11-14T08:57:07.900Z,6.62
2017-11-14T08:58:07.875Z,6.69
2017-11-14T08:59:07.519Z,6.77
2017-11-14T09:00:07.837Z,6.77
2017-11-14T09:01:07.479Z,6.68
2017-11-14T09:02:07.804Z,6.69
2017-11-14T09:03:07.454Z,6.69
2017-11-14T09:04:07.426Z,6.76
2017-11-14T09:05:07.743Z,6.77
2017-11-14T09:06:07.386Z,6.77
2017-11-14T09:07:07.364Z,6.83
2017-11-14T09:08:07.681Z,6.77
2017-11-14T09:09:07.340Z,6.81
2017-11-14T09:10:07.663Z,6.9
2017-11-14T09:11:07.283Z,6.9
2017-11-14T09:12:07.600Z,6.91
2017-11-14T09:13:07.247Z,6.98
2017-11-14T09:14:07.238Z,6.84
2017-11-14T09:15:07.217Z,6.99
2017-11-14T09:16:07.520Z,7.02
2017-11-14T09:17:07.518Z,7.05
2017-11-14T09:18:07.148Z,7.05
2017-11-14T09:19:06.790Z,7.12
2017-11-14T09:20:07.111Z,7.12
2017-11-14T09:21:07.483Z,7.15
2017-11-14T09:22:07.408Z,7.13
2017-11-14T09:23:07.401Z,7.23
2017-11-14T09:24:06.696Z,7.19
2017-11-14T09:25:07.374Z,7.29
2017-11-14T09:26:07.001Z,7.32
2017-11-14T09:27:06.977Z,7.26
2017-11-14T09:28:07.293Z,7.26
2017-11-14T09:29:06.938Z,7.34
2017-11-14T09:30:06.584Z,7.32
2017-11-14T09:31:06.906Z,7.35
2017-11-14T09:32:07.230Z,7.45
2017-11-14T09:33:06.921Z,7.44
2017-11-14T09:34:07.243Z,7.47
2017-11-14T09:35:06.489Z,7.56
2017-11-14T09:36:07.166Z,7.53
2017-11-14T09:37:07.124Z,7.56
2017-11-14T09:38:07.107Z,7.66
2017-11-14T09:39:07.091Z,7.6
2017-11-14T09:40:06.729Z,7.6
2017-11-14T09:41:07.049Z,7.67
2017-11-14T09:42:06.696Z,7.63
2017-11-14T09:43:07.029Z,7.63
2017-11-14T09:44:07.005Z,7.77
2017-11-14T09:45:06.637Z,7.66
2017-11-14T09:46:06.958Z,7.69
2017-11-14T09:47:06.608Z,7.63
2017-11-14T09:48:06.585Z,7.67
2017-11-14T09:49:06.897Z,7.67
2017-11-14T09:50:06.548Z,7.74
2017-11-14T09:51:06.191Z,7.75
2017-11-14T09:52:06.857Z,7.71
2017-11-14T09:53:06.843Z,7.74
2017-11-14T09:54:06.141Z,7.71
2017-11-14T09:55:07.057Z,7.67
2017-11-14T09:56:06.808Z,7.67
2017-11-14T09:57:06.755Z,7.63
2017-11-14T09:58:06.736Z,7.69
2017-11-14T09:59:06.720Z,7.72
2017-11-14T10:00:06.711Z,7.87
2017-11-14T10:01:06.009Z,7.72
2017-11-14T10:02:06.718Z,7.82
2017-11-14T10:03:05.969Z,7.79
2017-11-14T10:04:06.295Z,7.81
2017-11-14T10:05:06.613Z,7.81
2017-11-14T10:06:06.586Z,7.89
2017-11-14T10:07:05.947Z,7.93
2017-11-14T10:08:06.215Z,8
2017-11-14T10:09:06.191Z,8.07
2017-11-14T10:10:06.524Z,8.03
2017-11-14T10:11:06.166Z,8.14
2017-11-14T10:12:05.809Z,8.14
2017-11-14T10:13:06.461Z,8.07
2017-11-14T10:14:06.452Z,8.07
2017-11-14T10:15:06.435Z,8.11
2017-11-14T10:16:06.081Z,8.14
2017-11-14T10:17:06.445Z,8.14
2017-11-14T10:18:06.378Z,8.11
2017-11-14T10:19:06.359Z,8.11
2017-11-14T10:20:06.349Z,8.21
2017-11-14T10:21:06.332Z,8.25
2017-11-14T10:22:05.631Z,8.21
2017-11-14T10:23:05.945Z,8.28
2017-11-14T10:24:06.269Z,8.32
2017-11-14T10:25:05.583Z,8.33
2017-11-14T10:26:05.897Z,8.3
2017-11-14T10:27:05.929Z,8.48
2017-11-14T10:28:06.199Z,8.47
2017-11-14T10:29:05.506Z,8.51
2017-11-14T10:30:06.162Z,8.5
2017-11-14T10:31:05.472Z,8.47
2017-11-14T10:32:05.453Z,8.54
2017-11-14T10:33:05.431Z,8.68
2017-11-14T10:34:05.755Z,8.62
2017-11-14T10:35:06.090Z,8.62
2017-11-14T10:36:05.721Z,8.6
2017-11-14T10:37:06.128Z,8.73
2017-11-14T10:38:05.352Z,8.76
2017-11-14T10:39:06.018Z,8.76
2017-11-14T10:40:05.990Z,9.13
2017-11-14T10:41:05.640Z,9.38
2017-11-14T10:42:05.279Z,9.53
2017-11-14T10:43:05.938Z,9.67
2017-11-14T10:44:05.584Z,9.81
2017-11-14T10:45:05.563Z,9.85
2017-11-14T10:46:05.216Z,9.79
2017-11-14T10:47:05.585Z,9.85
2017-11-14T10:48:05.854Z,9.73
2017-11-14T10:49:05.503Z,9.6
2017-11-14T10:50:05.486Z,9.63
2017-11-14T10:51:05.138Z,9.7
2017-11-14T10:52:05.808Z,9.64
2017-11-14T10:53:05.442Z,9.39
2017-11-14T10:54:05.422Z,9.57
2017-11-14T10:55:05.792Z,9.43
2017-11-14T10:56:05.397Z,9.25
2017-11-14T10:57:05.378Z,9.27
2017-11-14T10:58:05.706Z,9.31
2017-11-14T10:59:05.007Z,9.18
2017-11-14T11:00:04.998Z,9.2
2017-11-14T11:01:04.972Z,9.2
2017-11-14T11:02:05.306Z,9.18
2017-11-14T11:03:05.282Z,9.23
2017-11-14T11:04:05.626Z,9.27
2017-11-14T11:05:05.243Z,9.27
2017-11-14T11:06:05.587Z,9.21
2017-11-14T11:07:05.563Z,9.3
2017-11-14T11:08:05.544Z,9.38
2017-11-14T11:09:05.560Z,9.34
2017-11-14T11:10:05.510Z,9.58
2017-11-14T11:11:05.486Z,9.58
2017-11-14T11:12:04.798Z,9.66
2017-11-14T11:13:05.476Z,9.63
2017-11-14T11:14:05.108Z,9.57
2017-11-14T11:15:05.420Z,9.6
2017-11-14T11:16:04.753Z,9.38
2017-11-14T11:17:05.400Z,9.4
2017-11-14T11:18:05.048Z,9.43
2017-11-14T11:19:04.686Z,9.5
2017-11-14T11:20:05.361Z,9.48
2017-11-14T11:21:04.989Z,9.58
2017-11-14T11:22:04.973Z,9.68
2017-11-14T11:23:04.629Z,9.75
2017-11-14T11:24:04.953Z,9.73
2017-11-14T11:25:05.271Z,9.75
2017-11-14T11:26:04.913Z,9.81
2017-11-14T11:27:04.898Z,9.89
2017-11-14T11:28:04.882Z,9.68
2017-11-14T11:29:05.203Z,9.68
2017-11-14T11:30:04.849Z,9.7
2017-11-14T11:31:04.843Z,9.7
2017-11-14T11:32:04.823Z,9.57
2017-11-14T11:33:05.149Z,9.6
2017-11-14T11:34:04.791Z,9.58
2017-11-14T11:35:04.773Z,9.61
2017-11-14T11:36:04.756Z,9.6
2017-11-14T11:37:04.752Z,9.61
2017-11-14T11:38:04.733Z,9.6
2017-11-14T11:39:04.717Z,9.75
2017-11-14T11:40:04.709Z,9.75
2017-11-14T11:41:04.679Z,9.58
2017-11-14T11:42:04.665Z,9.67
2017-11-14T11:43:05.231Z,9.63
2017-11-14T11:44:04.630Z,9.71
2017-11-14T11:45:04.630Z,9.78
2017-11-14T11:46:04.268Z,9.88
2017-11-14T11:47:04.582Z,9.91
2017-11-14T11:48:04.228Z,9.83
2017-11-14T11:49:04.213Z,9.82
2017-11-14T11:50:04.873Z,9.93
2017-11-14T11:51:04.178Z,9.91
2017-11-14T11:52:04.502Z,10.01
2017-11-14T11:53:04.872Z,10.09
2017-11-14T11:54:04.138Z,10.04
2017-11-14T11:55:04.324Z,10.12
2017-11-14T11:56:04.471Z,10.17
2017-11-14T11:57:04.428Z,10.33
2017-11-14T11:58:04.410Z,10.3
2017-11-14T11:59:04.395Z,10.21
2017-11-14T12:00:04.377Z,10
2017-11-14T12:01:04.716Z,9.97
2017-11-14T12:02:04.366Z,10.01
2017-11-14T12:03:04.332Z,10
2017-11-14T12:04:04.319Z,10
2017-11-14T12:05:04.645Z,10.15
2017-11-14T12:06:04.292Z,10.39
2017-11-14T12:07:03.935Z,10.52
2017-11-14T12:08:04.265Z,10.6
2017-11-14T12:09:03.910Z,10.74
2017-11-14T12:10:04.239Z,10.8
2017-11-14T12:11:04.219Z,10.65
2017-11-14T12:12:04.205Z,10.74
2017-11-14T12:13:03.901Z,10.52
2017-11-14T12:14:03.834Z,10.4
2017-11-14T12:15:03.833Z,10.26
2017-11-14T12:16:03.811Z,10.19
2017-11-14T12:17:03.789Z,10.33
2017-11-14T12:18:04.447Z,10.34
2017-11-14T12:19:03.767Z,10.39
2017-11-14T12:20:04.091Z,10.33
2017-11-14T12:21:03.744Z,10.39
2017-11-14T12:22:04.401Z,10.4
2017-11-14T12:23:04.091Z,10.39
2017-11-14T12:24:04.030Z,10.44
2017-11-14T12:25:04.364Z,10.47
2017-11-14T12:26:04.009Z,10.4
2017-11-14T12:27:03.984Z,10.47
2017-11-14T12:28:04.459Z,10.42
2017-11-14T12:29:03.966Z,10.37
2017-11-14T12:30:04.274Z,10.52
2017-11-14T12:31:03.934Z,10.51
2017-11-14T12:32:03.585Z,10.42
2017-11-14T12:33:03.946Z,10.37
2017-11-14T12:34:03.555Z,10.62
2017-11-14T12:35:03.877Z,10.71
2017-11-14T12:36:04.195Z,10.86
2017-11-14T12:37:03.507Z,10.99
2017-11-14T12:38:04.173Z,10.83
2017-11-14T12:39:03.816Z,10.94
2017-11-14T12:40:03.463Z,10.96
2017-11-14T12:41:03.450Z,11.11
2017-11-14T12:42:04.103Z,11.14
2017-11-14T12:43:03.806Z,10.99
2017-11-14T12:44:04.087Z,10.89
2017-11-14T12:45:04.067Z,10.92
2017-11-14T12:46:03.727Z,10.88
2017-11-14T12:47:03.705Z,10.96
2017-11-14T12:48:03.687Z,10.78
2017-11-14T12:49:03.346Z,10.63
2017-11-14T12:50:04.001Z,10.55
2017-11-14T12:51:04.005Z,10.39
2017-11-14T12:52:03.638Z,10.34
2017-11-14T12:53:03.667Z,10.18
2017-11-14T12:54:03.967Z,10.14
2017-11-14T12:55:03.921Z,10.07
2017-11-14T12:56:03.243Z,10.06
2017-11-14T12:57:03.530Z,10.01
2017-11-14T12:58:03.504Z,10
2017-11-14T12:59:03.202Z,10.07
2017-11-14T13:00:03.730Z,10
2017-11-14T13:01:03.438Z,10
2017-11-14T13:02:03.697Z,10.04
2017-11-14T13:03:03.196Z,10.03
2017-11-14T13:04:03.397Z,10.06
2017-11-14T13:05:03.104Z,10.06
2017-11-14T13:06:03.629Z,10.06
2017-11-14T13:07:03.618Z,10.24
2017-11-14T13:08:03.338Z,10.1
2017-11-14T13:09:03.048Z,10.21
2017-11-14T13:10:03.038Z,10.14
2017-11-14T13:11:03.280Z,10.32
2017-11-14T13:12:03.546Z,10.34
2017-11-14T13:13:03.537Z,10.36
2017-11-14T13:14:02.973Z,10.44
2017-11-14T13:15:03.224Z,10.39
2017-11-14T13:16:03.482Z,10.37
2017-11-14T13:17:03.228Z,10.53
2017-11-14T13:18:03.468Z,10.43
2017-11-14T13:19:02.892Z,10.33
2017-11-14T13:20:02.881Z,10.17